Time;durP1;ratioP1;P1;durP2;ratioP2;P2;SDS_P1;SDS_P2;PMS_P1;PMS_P2;Temp;Humidity;BMP_temperature;BMP_pressure;BME280_temperature;BME280_humidity;BME280_pressure;Samples;Min_cycle;Max_cycle;Signal;HPM_P1;HPM_P2
2023/07/06 00:01:03;;;;;;;6.88;3.40;;;12.20;99.90;;;;;;5012604;28;20080;-71
2023/07/06 00:03:31;;;;;;;;;;;12.20;99.90;;;;;;5012786;28;20042;-71
2023/07/06 00:05:58;;;;;;;5.72;4.05;;;12.10;99.90;;;;;;5012119;28;19925;-71
2023/07/06 00:08:24;;;;;;;4.70;3.78;;;12.20;99.90;;;;;;5012155;28;20053;-71
2023/07/06 00:10:50;;;;;;;6.38;4.03;;;12.10;99.90;;;;;;5012195;28;20151;-71
2023/07/06 00:13:16;;;;;;;6.47;4.40;;;12.10;99.90;;;;;;5012287;28;20474;-72
2023/07/06 00:15:42;;;;;;;5.40;3.85;;;12.10;99.90;;;;;;5010907;28;20049;-72
2023/07/06 00:18:10;;;;;;;3.92;3.60;;;12.00;99.90;;;;;;5011937;28;20045;-71
2023/07/06 00:20:39;;;;;;;6.28;4.10;;;12.00;99.90;;;;;;4994595;28;20411;-72
2023/07/06 00:23:10;;;;;;;4.22;3.83;;;12.00;99.90;;;;;;5011989;28;20042;-72
2023/07/06 00:25:40;;;;;;;6.28;4.13;;;12.00;99.90;;;;;;5011937;28;20069;-72
2023/07/06 00:28:07;;;;;;;11.52;4.57;;;12.00;99.90;;;;;;5012166;28;20080;-72
2023/07/06 00:33:18;;;;;;;5.40;4.55;;;12.00;99.90;;;;;;5012414;28;20075;-72
2023/07/06 00:35:47;;;;;;;6.70;5.07;;;11.90;99.90;;;;;;4997315;28;20050;-71
2023/07/06 00:38:15;;;;;;;7.63;4.82;;;11.90;99.90;;;;;;5015441;28;20482;-71
2023/07/06 00:40:47;;;;;;;5.85;4.80;;;11.90;99.90;;;;;;4998284;28;20474;-72
2023/07/06 00:43:18;;;;;;;9.10;5.75;;;11.90;99.90;;;;;;5015315;28;20042;-72
2023/07/06 00:45:45;;;;;;;6.97;4.93;;;11.90;99.90;;;;;;4997526;28;20053;-72
2023/07/06 00:48:22;;;;;;;6.15;5.00;;;11.90;99.90;;;;;;5015145;28;20053;-71
2023/07/06 00:50:54;;;;;;;6.88;5.20;;;11.90;99.90;;;;;;5015822;28;20080;-72
2023/07/06 00:53:21;;;;;;;6.65;5.20;;;11.90;99.90;;;;;;5015411;28;20069;-72
2023/07/06 00:55:47;;;;;;;8.43;5.68;;;11.90;99.90;;;;;;4997415;28;20578;-72
2023/07/06 00:58:27;;;;;;;7.35;4.90;;;11.90;99.90;;;;;;5015098;28;20513;-72
2023/07/06 01:00:56;;;;;;;5.53;4.85;;;11.80;99.90;;;;;;5015601;28;20056;-71
2023/07/06 01:03:22;;;;;;;7.13;5.75;;;11.80;99.90;;;;;;4997874;28;20524;-71
2023/07/06 01:05:50;;;;;;;8.10;6.05;;;11.80;99.90;;;;;;5015273;28;20053;-70
2023/07/06 01:08:20;;;;;;;9.30;6.07;;;11.80;99.90;;;;;;5015270;28;20046;-70
2023/07/06 01:10:48;;;;;;;11.60;6.65;;;11.80;99.90;;;;;;5015577;28;20042;-71
2023/07/06 01:13:14;;;;;;;6.97;5.53;;;11.80;99.90;;;;;;5014631;28;20464;-71
2023/07/06 01:16:04;;;;;;;8.00;6.85;;;11.80;99.90;;;;;;5014921;28;20042;-71
2023/07/06 01:18:51;;;;;;;9.55;5.25;;;11.80;99.90;;;;;;5015319;28;20049;-71
2023/07/06 01:21:31;;;;;;;9.73;6.30;;;11.80;99.90;;;;;;4998313;28;20056;-71
2023/07/06 01:24:31;;;;;;;6.13;5.03;;;11.80;99.90;;;;;;5015957;28;20105;-71
2023/07/06 01:27:12;;;;;;;10.23;6.95;;;11.70;99.90;;;;;;5015695;28;20054;-71
2023/07/06 01:30:03;;;;;;;8.55;6.32;;;11.70;99.90;;;;;;5015604;28;20083;-70
2023/07/06 01:32:32;;;;;;;7.90;5.85;;;11.70;99.90;;;;;;5015210;28;20042;-71
2023/07/06 01:35:15;;;;;;;9.25;6.60;;;11.70;99.90;;;;;;5015228;28;20056;-71
2023/07/06 01:37:43;;;;;;;10.27;6.47;;;11.70;99.90;;;;;;5015351;28;20046;-70
2023/07/06 01:40:09;;;;;;;8.43;7.07;;;11.70;99.90;;;;;;5015032;28;20050;-71
2023/07/06 01:42:40;;;;;;;8.07;6.93;;;11.70;99.90;;;;;;5015221;28;20509;-71
2023/07/06 01:45:18;;;;;;;10.18;7.15;;;11.70;99.90;;;;;;4997586;28;20375;-71
2023/07/06 01:47:55;;;;;;;10.60;7.45;;;11.70;99.90;;;;;;4997826;28;20389;-71
2023/07/06 01:50:40;;;;;;;11.10;7.10;;;11.60;99.90;;;;;;5014945;28;20045;-71
2023/07/06 01:53:19;;;;;;;10.82;7.30;;;11.70;99.90;;;;;;5014769;28;20049;-71
2023/07/06 01:55:54;;;;;;;8.20;6.78;;;11.60;99.90;;;;;;5014540;28;20046;-71
2023/07/06 01:58:24;;;;;;;8.80;6.30;;;11.70;99.90;;;;;;4997042;28;20053;-71
2023/07/06 02:00:55;;;;;;;9.13;7.10;;;11.70;99.90;;;;;;5015063;28;20038;-71
2023/07/06 02:03:24;;;;;;;10.20;6.85;;;11.70;99.90;;;;;;4997894;28;20360;-71
2023/07/06 02:05:51;;;;;;;10.35;7.65;;;11.70;99.90;;;;;;5014084;28;20069;-71
2023/07/06 02:08:17;;;;;;;10.55;6.85;;;11.70;99.90;;;;;;5014798;28;20196;-72
2023/07/06 02:10:44;;;;;;;8.63;7.57;;;11.80;99.90;;;;;;5014167;28;20076;-71
2023/07/06 02:13:10;;;;;;;12.90;8.73;;;11.90;99.90;;;;;;5013971;28;20128;-72
2023/07/06 02:15:36;;;;;;;11.07;8.38;;;11.90;99.90;;;;;;5014427;28;20064;-71
2023/07/06 02:18:02;;;;;;;10.60;7.50;;;11.90;99.90;;;;;;5014030;28;20050;-72
2023/07/06 02:20:28;;;;;;;9.43;6.97;;;11.90;99.90;;;;;;5013647;28;20045;-72
2023/07/06 02:22:54;;;;;;;8.48;6.15;;;12.00;99.90;;;;;;5013636;28;20077;-71
2023/07/06 02:25:20;;;;;;;9.25;6.80;;;12.00;99.90;;;;;;5013866;28;20073;-71
2023/07/06 02:27:47;;;;;;;9.85;7.18;;;12.00;99.90;;;;;;5013440;28;20085;-71
2023/07/06 02:30:13;;;;;;;9.18;7.35;;;12.00;99.90;;;;;;5013326;28;20045;-71
2023/07/06 02:32:39;;;;;;;7.85;6.85;;;12.00;99.90;;;;;;5013269;28;20095;-70
2023/07/06 02:35:11;;;;;;;8.20;7.32;;;12.00;99.90;;;;;;5012049;28;20482;-71
2023/07/06 02:37:40;;;;;;;9.80;8.20;;;12.10;99.90;;;;;;5013650;28;20081;-71
2023/07/06 02:40:08;;;;;;;8.05;6.47;;;12.10;99.90;;;;;;5013136;28;20125;-72
2023/07/06 02:42:35;;;;;;;8.52;6.63;;;12.10;99.90;;;;;;5013256;28;20050;-71
2023/07/06 02:45:04;;;;;;;11.50;7.28;;;12.10;99.90;;;;;;5013567;28;20058;-71
2023/07/06 02:47:30;;;;;;;8.25;7.20;;;12.10;99.90;;;;;;5013007;28;20099;-70
2023/07/06 02:49:55;;;;;;;9.38;6.93;;;12.10;99.90;;;;;;4995283;28;20481;-71
2023/07/06 02:52:21;;;;;;;10.48;6.45;;;12.00;99.90;;;;;;4995443;28;20049;-70
2023/07/06 02:54:47;;;;;;;8.35;6.53;;;12.00;99.90;;;;;;5012911;28;20049;-70
2023/07/06 02:57:13;;;;;;;9.88;7.80;;;12.00;99.90;;;;;;5012460;28;20054;-70
2023/07/06 02:59:38;;;;;;;8.82;6.60;;;12.00;99.90;;;;;;5012871;28;20509;-71
2023/07/06 03:02:04;;;;;;;9.57;6.72;;;12.10;99.90;;;;;;4995530;28;20042;-70
2023/07/06 03:04:31;;;;;;;7.47;6.28;;;12.10;99.90;;;;;;5013206;28;20058;-71
2023/07/06 03:06:57;;;;;;;8.48;6.80;;;12.00;99.90;;;;;;5012675;28;20056;-71
2023/07/06 03:09:23;;;;;;;8.27;7.03;;;12.00;99.90;;;;;;5012693;28;20045;-70
2023/07/06 03:11:52;;;;;;;8.30;5.65;;;12.00;99.90;;;;;;5012609;28;20042;-71
2023/07/06 03:14:25;;;;;;;8.75;6.03;;;12.00;99.90;;;;;;5012696;28;20112;-71
2023/07/06 03:16:53;;;;;;;8.25;6.65;;;11.90;99.90;;;;;;5012902;28;20113;-70
2023/07/06 03:19:20;;;;;;;7.18;5.50;;;11.90;99.90;;;;;;5012627;28;20049;-71
2023/07/06 03:21:46;;;;;;;9.32;6.72;;;11.90;99.90;;;;;;5012503;28;20091;-70
2023/07/06 03:24:12;;;;;;;9.38;5.70;;;11.80;99.90;;;;;;5012053;28;20084;-71
2023/07/06 03:26:39;;;;;;;9.10;5.70;;;11.80;99.90;;;;;;5012761;28;20454;-71
2023/07/06 03:29:06;;;;;;;7.88;6.25;;;11.80;99.90;;;;;;5011097;28;20538;-71
2023/07/06 03:31:32;;;;;;;10.43;6.13;;;11.80;99.90;;;;;;5012502;28;20042;-71
2023/07/06 03:33:59;;;;;;;8.38;6.43;;;11.80;99.90;;;;;;5012396;28;20042;-71
2023/07/06 03:36:25;;;;;;;9.15;7.15;;;11.80;99.90;;;;;;5012494;28;20046;-71
2023/07/06 03:38:51;;;;;;;7.75;5.68;;;11.80;99.90;;;;;;5011813;28;20061;-71
2023/07/06 03:41:18;;;;;;;10.57;6.75;;;11.80;99.90;;;;;;5013124;28;20646;-72
2023/07/06 03:43:45;;;;;;;6.47;5.40;;;11.80;99.90;;;;;;4994813;28;20444;-71
2023/07/06 03:46:12;;;;;;;8.75;5.50;;;11.80;99.90;;;;;;5012546;28;20049;-69
2023/07/06 03:48:40;;;;;;;9.02;6.30;;;11.80;99.90;;;;;;4995168;28;20057;-71
2023/07/06 03:51:07;;;;;;;7.20;6.10;;;11.80;99.90;;;;;;5012980;28;20064;-71
2023/07/06 03:53:37;;;;;;;8.80;5.43;;;11.80;99.90;;;;;;5011274;28;20042;-71
2023/07/06 03:56:03;;;;;;;10.43;6.50;;;11.90;99.90;;;;;;5012845;28;20045;-71
2023/07/06 03:58:29;;;;;;;9.02;6.93;;;12.00;99.90;;;;;;5011326;28;20053;-71
2023/07/06 04:00:58;;;;;;;9.10;6.90;;;12.00;99.90;;;;;;5011213;28;20054;-70
2023/07/06 04:03:26;;;;;;;8.77;6.32;;;12.10;99.90;;;;;;4994836;28;20053;-71
2023/07/06 04:05:53;;;;;;;9.73;6.70;;;12.20;99.90;;;;;;4994998;28;20433;-71
2023/07/06 04:08:21;;;;;;;9.88;8.00;;;12.30;99.90;;;;;;5012516;28;20042;-71
2023/07/06 04:10:48;;;;;;;7.70;6.80;;;12.40;99.90;;;;;;5014905;28;20045;-72
2023/07/06 04:13:14;;;;;;;10.43;7.13;;;12.40;99.90;;;;;;4999067;28;20501;-72
2023/07/06 04:15:44;;;;;;;7.68;6.95;;;12.50;99.90;;;;;;4998749;28;20057;-71
2023/07/06 04:18:10;;;;;;;11.60;7.78;;;12.50;99.90;;;;;;5016043;28;20370;-71
2023/07/06 04:20:37;;;;;;;8.77;7.05;;;12.60;99.90;;;;;;4998616;28;20064;-71
2023/07/06 04:23:03;;;;;;;9.68;7.38;;;12.60;99.90;;;;;;5014647;28;20081;-71
2023/07/06 04:25:32;;;;;;;8.80;7.13;;;12.60;99.90;;;;;;5015911;28;20077;-71
2023/07/06 04:28:02;;;;;;;10.60;8.43;;;12.70;99.90;;;;;;5015798;28;20108;-71
2023/07/06 04:30:32;;;;;;;8.15;6.97;;;12.70;99.90;;;;;;5015491;28;20054;-71
2023/07/06 04:32:58;;;;;;;6.93;6.22;;;12.70;99.90;;;;;;4998103;28;20056;-71
2023/07/06 04:35:23;;;;;;;11.80;7.95;;;12.80;99.90;;;;;;5015439;28;20054;-70
2023/07/06 04:37:50;;;;;;;9.30;7.53;;;12.80;99.90;;;;;;5015767;28;20042;-71
2023/07/06 04:40:20;;;;;;;13.70;7.95;;;12.90;99.90;;;;;;5015967;28;20043;-71
2023/07/06 04:42:49;;;;;;;9.80;7.78;;;12.90;99.90;;;;;;5015465;28;20046;-71
2023/07/06 04:45:16;;;;;;;10.88;7.22;;;12.90;99.90;;;;;;5015829;28;20179;-71
2023/07/06 04:47:44;;;;;;;10.90;6.75;;;12.90;99.90;;;;;;5015501;28;20136;-71
2023/07/06 04:50:12;;;;;;;12.95;8.32;;;12.90;99.90;;;;;;5015365;28;20120;-71
2023/07/06 04:52:38;;;;;;;10.93;7.32;;;12.90;99.90;;;;;;5015681;28;20048;-71
2023/07/06 04:55:08;;;;;;;10.45;7.90;;;13.00;99.90;;;;;;4997966;28;20058;-71
2023/07/06 04:57:36;;;;;;;8.85;7.15;;;13.00;99.90;;;;;;4997514;28;20486;-71
2023/07/06 05:00:18;;;;;;;10.30;7.90;;;13.00;99.90;;;;;;4997792;28;20050;-71
2023/07/06 05:02:45;;;;;;;12.52;8.15;;;13.00;99.90;;;;;;5015521;28;20073;-71
2023/07/06 05:05:12;;;;;;;11.55;8.32;;;13.10;99.90;;;;;;4997654;28;20077;-71
2023/07/06 05:07:45;;;;;;;14.18;9.27;;;13.10;99.90;;;;;;5015039;28;20053;-71
2023/07/06 05:10:12;;;;;;;;;;;13.10;99.90;;;;;;5015548;28;20433;-71
2023/07/06 05:12:39;;;;;;;12.48;9.13;;;13.10;99.90;;;;;;5014821;28;19928;-71
2023/07/06 05:15:06;;;;;;;14.15;8.50;;;13.10;99.90;;;;;;4981302;28;20042;-71
2023/07/06 05:17:32;;;;;;;11.23;7.90;;;13.20;99.90;;;;;;5014852;28;20053;-71
2023/07/06 05:19:59;;;;;;;9.27;6.97;;;13.30;99.90;;;;;;5014563;28;20045;-71
2023/07/06 05:22:25;;;;;;;14.10;8.60;;;13.40;99.90;;;;;;5014630;28;20050;-72
2023/07/06 05:24:51;;;;;;;11.82;8.27;;;13.50;99.90;;;;;;5015374;28;20041;-72
2023/07/06 05:27:18;;;;;;;13.43;8.45;;;13.70;99.90;;;;;;5014948;28;20049;-72
2023/07/06 05:29:44;;;;;;;12.32;8.30;;;13.90;99.90;;;;;;5014534;28;20046;-71
2023/07/06 05:32:10;;;;;;;12.60;9.05;;;13.90;99.90;;;;;;5014048;28;20491;-71
2023/07/06 05:34:36;;;;;;;14.88;8.82;;;14.00;99.90;;;;;;5014174;28;20048;-71
2023/07/06 05:37:03;;;;;;;13.98;8.85;;;14.10;99.90;;;;;;5014508;28;20086;-71
2023/07/06 05:39:29;;;;;;;14.38;8.55;;;14.20;99.90;;;;;;5014872;28;20061;-71
2023/07/06 05:41:55;;;;;;;9.32;7.30;;;14.20;99.90;;;;;;5014325;28;20132;-71
2023/07/06 05:44:21;;;;;;;11.75;8.05;;;14.30;99.90;;;;;;5014345;28;20078;-71
2023/07/06 05:46:46;;;;;;;13.75;8.35;;;14.40;99.90;;;;;;5014254;28;20459;-72
2023/07/06 05:49:12;;;;;;;15.73;8.38;;;14.40;99.90;;;;;;5014522;28;20112;-71
2023/07/06 05:51:38;;;;;;;12.98;9.07;;;14.60;99.90;;;;;;5014165;28;20050;-71
2023/07/06 05:54:03;;;;;;;10.07;8.75;;;14.60;99.90;;;;;;5013963;28;20054;-71
2023/07/06 05:56:31;;;;;;;13.40;8.00;;;14.70;99.90;;;;;;5012743;28;20080;-71
2023/07/06 05:58:59;;;;;;;12.15;7.75;;;14.80;99.90;;;;;;5014406;28;20065;-71
2023/07/06 06:01:25;;;;;;;12.77;8.82;;;14.90;99.90;;;;;;5013530;28;20567;-72
2023/07/06 06:03:52;;;;;;;10.73;7.70;;;15.00;99.90;;;;;;5014303;28;20038;-71
2023/07/06 06:06:20;;;;;;;12.35;7.68;;;15.10;99.90;;;;;;5013753;28;20415;-71
2023/07/06 06:08:47;;;;;;;11.55;7.50;;;15.30;99.90;;;;;;5013224;28;20436;-71
2023/07/06 06:11:15;;;;;;;12.63;7.97;;;15.40;99.90;;;;;;5013616;28;20065;-70
2023/07/06 06:13:43;;;;;;;13.73;7.60;;;15.50;99.90;;;;;;5013879;28;20050;-72
2023/07/06 06:16:12;;;;;;;11.38;7.95;;;15.70;99.90;;;;;;5013506;28;20046;-71
2023/07/06 06:18:39;;;;;;;11.82;7.97;;;15.80;99.90;;;;;;4996784;28;20049;-70
2023/07/06 06:21:10;;;;;;;11.50;7.72;;;15.90;99.90;;;;;;5013541;28;20478;-71
2023/07/06 06:23:36;;;;;;;12.38;7.13;;;16.20;99.90;;;;;;5014134;28;20053;-71
2023/07/06 06:26:02;;;;;;;10.80;6.50;;;16.70;99.90;;;;;;5013799;28;20050;-70
2023/07/06 06:28:28;;;;;;;12.45;6.70;;;17.80;99.90;;;;;;5013473;28;20078;-71
2023/07/06 06:30:55;;;;;;;8.48;5.63;;;18.90;99.90;;;;;;4996099;28;20084;-71
2023/07/06 06:33:21;;;;;;;7.45;5.43;;;20.00;99.90;;;;;;5012978;28;20038;-72
2023/07/06 06:35:47;;;;;;;8.48;5.90;;;20.60;99.90;;;;;;5013278;28;20050;-72
2023/07/06 06:38:14;;;;;;;13.27;5.88;;;21.40;99.90;;;;;;5013497;28;20045;-73
2023/07/06 06:40:40;;;;;;;9.07;5.68;;;22.10;99.90;;;;;;5014911;28;20128;-73
2023/07/06 06:43:05;;;;;;;8.63;4.68;;;22.50;99.90;;;;;;4996444;28;20454;-73
2023/07/06 06:45:31;;;;;;;7.60;5.57;;;22.80;99.90;;;;;;5013756;28;20128;-73
2023/07/06 06:47:57;;;;;;;8.90;5.72;;;23.10;99.90;;;;;;5012877;28;20042;-73
2023/07/06 06:50:23;;;;;;;9.70;3.72;;;23.40;99.90;;;;;;5013690;28;20363;-73
2023/07/06 06:52:50;;;;;;;8.88;5.28;;;23.90;99.90;;;;;;5013106;28;20042;-73
2023/07/06 06:55:16;;;;;;;5.68;4.40;;;24.10;99.90;;;;;;4995845;28;20054;-73
2023/07/06 06:57:43;;;;;;;8.80;4.40;;;24.50;99.90;;;;;;5013560;28;20061;-73
2023/07/06 07:00:09;;;;;;;11.43;5.38;;;25.10;99.90;;;;;;5013071;28;20473;-73
2023/07/06 07:02:38;;;;;;;12.95;4.45;;;24.90;99.90;;;;;;5013601;28;20045;-71
2023/07/06 07:05:05;;;;;;;11.90;4.65;;;25.00;99.90;;;;;;5013322;28;20129;-71
2023/07/06 07:07:31;;;;;;;10.52;4.35;;;25.80;99.90;;;;;;5013611;28;20045;-70
2023/07/06 07:09:57;;;;;;;7.28;4.40;;;25.90;99.90;;;;;;5013244;28;20056;-71
2023/07/06 07:12:23;;;;;;;8.65;4.30;;;25.80;99.90;;;;;;5012488;28;20474;-72
2023/07/06 07:14:49;;;;;;;6.72;4.20;;;25.80;99.40;;;;;;5012795;28;20049;-72
2023/07/06 07:17:14;;;;;;;6.93;5.03;;;25.90;99.50;;;;;;5012772;28;20046;-71
2023/07/06 07:19:41;;;;;;;6.93;3.72;;;26.20;97.90;;;;;;5012726;28;20046;-71
2023/07/06 07:22:07;;;;;;;7.63;3.60;;;26.00;98.20;;;;;;5012751;28;20077;-71
2023/07/06 07:24:33;;;;;;;8.27;4.13;;;26.10;98.60;;;;;;5012356;28;20057;-71
2023/07/06 07:27:00;;;;;;;9.25;4.00;;;26.20;98.50;;;;;;5012948;28;20054;-71
2023/07/06 07:29:26;;;;;;;9.65;4.00;;;26.40;97.80;;;;;;5012559;28;20061;-71
2023/07/06 07:31:52;;;;;;;7.13;3.67;;;26.80;97.70;;;;;;4979195;28;20469;-72
2023/07/06 07:34:19;;;;;;;7.07;2.97;;;26.80;96.70;;;;;;5013002;28;20050;-72
2023/07/06 07:36:45;;;;;;;4.95;3.22;;;26.50;96.80;;;;;;5012989;28;20124;-71
2023/07/06 07:39:11;;;;;;;4.80;3.30;;;26.90;96.50;;;;;;5013244;28;20078;-72
2023/07/06 07:41:37;;;;;;;5.97;3.58;;;26.80;95.90;;;;;;5012566;28;20557;-71
2023/07/06 07:44:03;;;;;;;7.03;3.38;;;27.10;95.50;;;;;;5014736;28;20046;-71
2023/07/06 07:46:29;;;;;;;8.65;3.88;;;27.40;94.70;;;;;;4982925;28;20422;-71
2023/07/06 07:48:56;;;;;;;3.80;2.83;;;27.00;95.10;;;;;;5016452;28;20509;-71
2023/07/06 07:51:24;;;;;;;7.63;3.65;;;27.60;94.90;;;;;;5016908;28;20054;-72
2023/07/06 07:53:53;;;;;;;7.70;3.17;;;27.80;93.10;;;;;;5016189;28;20042;-71
2023/07/06 07:56:19;;;;;;;7.35;3.38;;;28.00;94.10;;;;;;5016595;28;20371;-71
2023/07/06 07:58:47;;;;;;;4.57;2.67;;;28.50;93.80;;;;;;5016152;28;20104;-72
2023/07/06 08:01:19;;;;;;;4.97;2.72;;;28.70;93.50;;;;;;5016310;28;20050;-72
2023/07/06 08:03:45;;;;;;;9.90;4.57;;;28.60;93.00;;;;;;5016638;28;20574;-72
2023/07/06 08:06:14;;;;;;;3.83;2.60;;;28.40;92.80;;;;;;4998941;28;20089;-72
2023/07/06 08:08:42;;;;;;;5.88;2.83;;;28.10;92.10;;;;;;5016674;28;20046;-71
2023/07/06 08:11:16;;;;;;;4.47;2.80;;;27.90;92.30;;;;;;4998590;28;20042;-71
2023/07/06 08:13:44;;;;;;;8.07;4.20;;;28.60;91.70;;;;;;5016385;28;20048;-72
2023/07/06 08:16:10;;;;;;;5.90;2.67;;;28.70;92.00;;;;;;5015912;28;20049;-72
2023/07/06 08:18:36;;;;;;;8.38;2.85;;;28.40;91.70;;;;;;5016028;28;20053;-72
2023/07/06 08:21:03;;;;;;;5.40;2.65;;;28.50;91.70;;;;;;4998544;28;20046;-72
2023/07/06 08:23:29;;;;;;;4.65;2.15;;;28.60;90.60;;;;;;5015656;28;20054;-72
2023/07/06 08:25:54;;;;;;;3.00;2.42;;;28.30;90.50;;;;;;5015837;28;20068;-72
2023/07/06 08:28:29;;;;;;;4.78;2.70;;;28.60;91.10;;;;;;5014552;28;20466;-72
2023/07/06 08:30:54;;;;;;;5.45;3.28;;;29.00;89.90;;;;;;5015737;28;20057;-72
2023/07/06 08:33:20;;;;;;;3.72;2.25;;;28.90;90.40;;;;;;4998189;28;20046;-72
2023/07/06 08:35:47;;;;;;;5.05;2.67;;;29.10;90.90;;;;;;5015600;28;20050;-72
2023/07/06 08:38:14;;;;;;;6.30;2.92;;;27.70;89.70;;;;;;5015669;28;20046;-71
2023/07/06 08:40:42;;;;;;;3.83;2.20;;;27.00;89.40;;;;;;4998221;28;20054;-72
2023/07/06 08:43:16;;;;;;;2.72;2.13;;;26.70;88.90;;;;;;5015481;28;20044;-71
2023/07/06 08:45:46;;;;;;;4.93;1.92;;;27.50;89.30;;;;;;5015550;28;20126;-72
2023/07/06 08:48:17;;;;;;;4.45;2.47;;;27.70;88.90;;;;;;5016038;28;20048;-72
2023/07/06 08:50:48;;;;;;;3.92;2.20;;;27.10;90.20;;;;;;5015684;28;20085;-72
2023/07/06 08:53:15;;;;;;;5.00;2.38;;;26.80;88.30;;;;;;5015334;28;20046;-71
2023/07/06 08:55:42;;;;;;;2.72;1.45;;;27.10;90.10;;;;;;5014508;28;20050;-72
2023/07/06 08:58:12;;;;;;;5.25;2.00;;;26.80;88.50;;;;;;4997361;28;20069;-71
2023/07/06 09:00:39;;;;;;;4.63;1.98;;;26.70;87.40;;;;;;4997856;28;20089;-71
2023/07/06 09:03:08;;;;;;;1.77;1.58;;;27.20;89.30;;;;;;5015082;28;20045;-71
2023/07/06 09:05:37;;;;;;;3.13;1.58;;;27.20;88.20;;;;;;5015240;28;20486;-71
2023/07/06 09:08:03;;;;;;;4.50;1.90;;;27.50;90.10;;;;;;5014704;28;20374;-71
2023/07/06 09:10:30;;;;;;;2.33;1.50;;;27.90;90.10;;;;;;5015471;28;20046;-72
2023/07/06 09:13:11;;;;;;;2.78;1.60;;;27.70;87.40;;;;;;5014920;28;20042;-71
2023/07/06 09:15:38;;;;;;;3.40;1.85;;;27.50;88.00;;;;;;5015036;28;20527;-71
2023/07/06 09:18:04;;;;;;;2.25;1.70;;;27.30;87.10;;;;;;5014571;28;20556;-71
2023/07/06 09:20:33;;;;;;;1.85;1.55;;;27.80;88.20;;;;;;5014875;28;20136;-71
2023/07/06 09:23:03;;;;;;;4.30;1.83;;;27.90;87.90;;;;;;5015101;28;20081;-71
2023/07/06 09:25:38;;;;;;;4.07;1.88;;;27.80;86.00;;;;;;5014812;28;20049;-71
2023/07/06 09:28:07;;;;;;;3.60;1.52;;;27.20;85.90;;;;;;5015027;28;20112;-72
2023/07/06 09:30:37;;;;;;;2.70;1.90;;;26.20;85.70;;;;;;4997153;28;20046;-71
2023/07/06 09:33:06;;;;;;;2.25;1.75;;;25.70;87.70;;;;;;5015047;28;20073;-71
2023/07/06 09:35:35;;;;;;;3.20;1.77;;;25.00;87.70;;;;;;5014480;28;20045;-71
2023/07/06 09:38:03;;;;;;;3.47;2.00;;;25.10;89.20;;;;;;5014267;28;20406;-71
2023/07/06 09:40:30;;;;;;;2.88;1.95;;;25.60;89.70;;;;;;5014391;28;20057;-71
2023/07/06 09:42:57;;;;;;;5.35;1.70;;;25.70;89.70;;;;;;5014454;28;20050;-71
2023/07/06 09:45:29;;;;;;;3.28;1.60;;;26.50;90.00;;;;;;4997608;28;20486;-71
2023/07/06 09:48:04;;;;;;;4.10;2.03;;;26.20;87.20;;;;;;5014329;28;20085;-71
2023/07/06 09:50:35;;;;;;;5.20;2.08;;;25.80;88.60;;;;;;5014476;28;20042;-71
2023/07/06 09:53:05;;;;;;;3.28;1.73;;;25.30;89.10;;;;;;5014355;28;20053;-71
2023/07/06 09:55:31;;;;;;;2.65;1.77;;;24.60;88.70;;;;;;5014629;28;20073;-71
2023/07/06 09:57:58;;;;;;;5.28;2.15;;;24.10;88.90;;;;;;5014049;28;20100;-71
2023/07/06 10:00:35;;;;;;;3.65;1.50;;;23.80;89.80;;;;;;5013968;28;20046;-71
2023/07/06 10:03:10;;;;;;;2.47;1.83;;;23.90;89.20;;;;;;5014640;28;20053;-70
2023/07/06 10:05:48;;;;;;;5.22;1.92;;;24.10;89.70;;;;;;5014113;28;20447;-71
2023/07/06 10:08:28;;;;;;;2.72;1.90;;;24.70;90.30;;;;;;5013994;28;20096;-71
2023/07/06 10:11:21;;;;;;;4.32;2.35;;;24.80;87.90;;;;;;5014148;28;20112;-71
2023/07/06 10:13:51;;;;;;;3.15;2.05;;;24.70;90.20;;;;;;5013766;28;20520;-71
2023/07/06 10:16:29;;;;;;;1.80;1.50;;;24.30;90.20;;;;;;5013836;28;20054;-71
2023/07/06 10:19:11;;;;;;;3.83;1.83;;;24.30;90.10;;;;;;5013662;28;20081;-70
2023/07/06 10:21:46;;;;;;;2.72;1.80;;;24.20;91.80;;;;;;5014224;28;20042;-70
2023/07/06 10:24:32;;;;;;;3.13;1.80;;;24.70;91.30;;;;;;5013890;28;20048;-70
2023/07/06 10:27:02;;;;;;;3.70;2.05;;;25.30;90.20;;;;;;5014243;28;20187;-71
2023/07/06 10:29:43;;;;;;;2.90;1.30;;;25.70;90.50;;;;;;5013714;28;20109;-71
2023/07/06 10:32:17;;;;;;;2.28;2.08;;;26.20;88.80;;;;;;5013413;28;20049;-71
2023/07/06 10:34:48;;;;;;;1.85;1.58;;;26.20;89.40;;;;;;5013649;28;20042;-71
2023/07/06 10:37:16;;;;;;;3.47;1.85;;;26.40;90.80;;;;;;4996221;28;20104;-70
2023/07/06 10:39:42;;;;;;;2.53;1.63;;;26.70;91.00;;;;;;5013365;28;20045;-71
2023/07/06 10:42:25;;;;;;;2.95;1.70;;;26.70;90.80;;;;;;5013375;28;20064;-70
2023/07/06 10:45:02;;;;;;;3.60;1.73;;;26.60;90.20;;;;;;5013407;28;20442;-70
2023/07/06 10:47:46;;;;;;;2.70;1.67;;;26.90;91.30;;;;;;4996241;28;20053;-71
2023/07/06 10:50:23;;;;;;;5.32;1.88;;;26.40;87.80;;;;;;5013774;28;20115;-71
2023/07/06 10:53:01;;;;;;;2.22;1.95;;;25.70;87.70;;;;;;5013158;28;20042;-71
2023/07/06 10:55:34;;;;;;;3.47;1.38;;;25.40;89.70;;;;;;5013179;28;20112;-70
2023/07/06 10:58:24;;;;;;;3.95;1.80;;;25.70;91.20;;;;;;5013264;28;20062;-70
2023/07/06 11:00:52;;;;;;;2.15;1.67;;;25.90;89.90;;;;;;4995658;28;20050;-70
2023/07/06 11:03:23;;;;;;;5.30;1.55;;;26.00;90.00;;;;;;4995800;28;20133;-70
2023/07/06 11:06:05;;;;;;;2.33;1.25;;;25.90;88.00;;;;;;4995996;28;20049;-70
2023/07/06 11:08:58;;;;;;;2.83;1.37;;;26.00;90.00;;;;;;5013553;28;20045;-70
2023/07/06 11:11:27;;;;;;;4.65;1.50;;;26.00;90.40;;;;;;4995656;28;20386;-73
2023/07/06 11:13:53;;;;;;;3.28;1.40;;;26.00;87.80;;;;;;5013038;28;20045;-71
2023/07/06 11:16:26;;;;;;;1.98;1.58;;;26.10;88.10;;;;;;5012763;28;20477;-70
2023/07/06 11:18:55;;;;;;;4.30;1.65;;;26.10;90.00;;;;;;4995858;28;20117;-71
2023/07/06 11:21:34;;;;;;;3.03;1.88;;;26.10;86.60;;;;;;5013222;28;20045;-71
2023/07/06 11:24:07;;;;;;;3.58;1.10;;;25.90;86.60;;;;;;4995456;28;20493;-70
2023/07/06 11:26:52;;;;;;;3.40;1.80;;;25.50;85.70;;;;;;5013307;28;20073;-70
2023/07/06 11:29:24;;;;;;;4.28;1.73;;;25.10;88.30;;;;;;5012402;28;20042;-70
2023/07/06 11:31:58;;;;;;;2.50;1.70;;;24.80;86.30;;;;;;5012904;28;20117;-71
2023/07/06 11:34:34;;;;;;;2.30;1.52;;;25.00;91.10;;;;;;5012521;28;20054;-70
2023/07/06 11:37:41;;;;;;;2.00;1.40;;;25.10;88.90;;;;;;5013344;28;20049;-70
2023/07/06 11:40:22;;;;;;;4.03;2.13;;;25.30;87.10;;;;;;5012224;28;20057;-71
2023/07/06 11:43:23;;;;;;;3.33;1.75;;;25.30;87.80;;;;;;5012435;28;20088;-75
2023/07/06 11:46:16;;;;;;;1.70;1.58;;;25.50;87.90;;;;;;4995422;28;20109;-72
2023/07/06 11:48:45;;;;;;;;;;;25.40;90.50;;;;;;4995526;28;20363;-70
2023/07/06 11:51:11;;;;;;;6.00;2.45;;;24.90;86.90;;;;;;5012509;28;19927;-70
2023/07/06 11:53:53;;;;;;;2.78;1.88;;;24.70;88.60;;;;;;5012320;28;20046;-70
2023/07/06 11:56:50;;;;;;;2.97;1.67;;;24.60;88.00;;;;;;5012879;28;20065;-70
2023/07/06 11:59:37;;;;;;;3.05;1.40;;;24.20;88.40;;;;;;4994426;28;20053;-70
2023/07/06 12:02:20;;;;;;;3.53;1.67;;;24.00;89.30;;;;;;4995200;28;20052;-70
2023/07/06 12:04:46;;;;;;;3.08;1.77;;;23.90;90.50;;;;;;5012256;28;20045;-69
2023/07/06 12:07:30;;;;;;;1.83;1.65;;;23.80;90.20;;;;;;5012432;28;20172;-70
2023/07/06 12:10:04;;;;;;;1.85;1.70;;;23.50;88.20;;;;;;4994795;28;20049;-70
2023/07/06 12:12:32;;;;;;;2.70;2.03;;;23.40;89.20;;;;;;5011706;28;20048;-70
2023/07/06 12:15:00;;;;;;;1.88;1.63;;;23.30;89.60;;;;;;5012230;28;20053;-74
2023/07/06 12:17:29;;;;;;;4.78;2.40;;;23.30;90.20;;;;;;5012162;28;20053;-70
2023/07/06 12:19:57;;;;;;;2.90;2.28;;;23.40;89.80;;;;;;5012191;28;20125;-71
2023/07/06 12:22:23;;;;;;;1.50;1.40;;;23.60;89.50;;;;;;5012298;28;20038;-70
2023/07/06 12:24:52;;;;;;;2.33;1.60;;;23.80;89.10;;;;;;5012418;28;20048;-70
2023/07/06 12:27:18;;;;;;;2.20;1.50;;;23.90;88.10;;;;;;5011987;28;20081;-70
2023/07/06 12:29:48;;;;;;;3.38;1.40;;;24.10;85.20;;;;;;5011646;28;20536;-70
2023/07/06 12:32:22;;;;;;;2.95;1.60;;;24.20;88.00;;;;;;5015279;28;20081;-70
2023/07/06 12:34:53;;;;;;;1.83;1.48;;;24.30;84.70;;;;;;5015659;28;20042;-71
2023/07/06 12:37:21;;;;;;;2.45;1.80;;;24.60;86.40;;;;;;5015516;28;20045;-71
2023/07/06 12:39:48;;;;;;;2.60;1.70;;;24.60;87.00;;;;;;5015518;28;20076;-71
2023/07/06 12:42:17;;;;;;;2.20;1.80;;;24.80;88.40;;;;;;5015772;28;20092;-69
2023/07/06 12:44:45;;;;;;;3.17;1.52;;;24.90;87.60;;;;;;5015017;28;20144;-70
2023/07/06 12:47:24;;;;;;;1.58;1.13;;;25.10;86.80;;;;;;5015756;28;20183;-70
2023/07/06 12:49:52;;;;;;;2.53;1.42;;;25.10;86.00;;;;;;5015111;28;20449;-70
2023/07/06 12:52:21;;;;;;;1.92;1.55;;;25.10;86.00;;;;;;5015155;28;20099;-71
2023/07/06 12:54:51;;;;;;;3.65;1.60;;;25.00;86.80;;;;;;5014884;28;20136;-70
2023/07/06 12:57:23;;;;;;;1.40;1.30;;;25.00;87.40;;;;;;4998009;28;20147;-70
2023/07/06 12:59:55;;;;;;;2.08;1.88;;;25.20;87.10;;;;;;5015014;28;20123;-69
2023/07/06 13:02:23;;;;;;;1.63;1.52;;;25.20;87.30;;;;;;5015487;28;20045;-70